Time;durP1;ratioP1;P1;durP2;ratioP2;P2;SDS_P1;SDS_P2;PMS_P1;PMS_P2;Temp;Humidity;BMP_temperature;BMP_pressure;BME280_temperature;BME280_humidity;BME280_pressure;Samples;Min_cycle;Max_cycle;Signal;HPM_P1;HPM_P2
2023/03/27 00:02:13;;;;;;;1.97;1.87;;;6.90;99.90;;;;;;4999814;28;20250;-64
2023/03/27 00:04:40;;;;;;;3.23;1.93;;;6.90;99.90;;;;;;5013233;28;20223;-64
2023/03/27 00:07:06;;;;;;;6.17;1.43;;;6.90;99.90;;;;;;4996965;28;20195;-64
2023/03/27 00:09:32;;;;;;;9.33;2.53;;;7.00;99.90;;;;;;5021298;28;20190;-64
2023/03/27 00:11:59;;;;;;;5.40;1.43;;;7.00;99.90;;;;;;5003657;28;20188;-63
2023/03/27 00:14:25;;;;;;;2.00;1.53;;;7.10;99.90;;;;;;5010107;28;20306;-64
2023/03/27 00:16:51;;;;;;;2.50;1.67;;;7.10;99.90;;;;;;4995850;28;20757;-63
2023/03/27 00:19:17;;;;;;;1.83;1.23;;;7.10;99.90;;;;;;4995329;28;20272;-63
2023/03/27 00:21:43;;;;;;;3.37;1.30;;;7.00;99.90;;;;;;5002779;28;20196;-63
2023/03/27 00:24:10;;;;;;;2.50;0.93;;;7.00;99.90;;;;;;5004506;28;20215;-63
2023/03/27 00:26:37;;;;;;;2.63;1.43;;;7.00;99.90;;;;;;5002748;28;20270;-63
2023/03/27 00:29:03;;;;;;;1.97;1.40;;;7.10;99.90;;;;;;5001389;28;20646;-63
2023/03/27 00:31:29;;;;;;;1.87;1.63;;;7.10;99.90;;;;;;5007356;28;20184;-63
2023/03/27 00:33:54;;;;;;;1.17;1.10;;;7.20;99.90;;;;;;5000987;28;20198;-64
2023/03/27 00:36:20;;;;;;;2.73;1.70;;;7.00;99.90;;;;;;5006266;28;20184;-63
2023/03/27 00:38:46;;;;;;;1.30;1.20;;;7.00;99.90;;;;;;5011412;28;20257;-64
2023/03/27 00:41:12;;;;;;;3.20;1.93;;;7.10;99.90;;;;;;5015274;28;20636;-63
2023/03/27 00:43:42;;;;;;;3.43;2.03;;;7.20;99.90;;;;;;5014009;28;20641;-63
2023/03/27 00:46:14;;;;;;;2.60;1.40;;;7.20;99.90;;;;;;5006946;28;20203;-63
2023/03/27 00:48:42;;;;;;;2.37;1.90;;;7.10;99.90;;;;;;5012498;28;20179;-63
2023/03/27 00:51:08;;;;;;;1.90;1.80;;;7.10;99.90;;;;;;5007606;28;20235;-63
2023/03/27 00:53:34;;;;;;;7.97;4.10;;;7.20;99.90;;;;;;5000581;28;20180;-63
2023/03/27 00:56:06;;;;;;;13.23;5.53;;;7.20;99.90;;;;;;5005230;28;20275;-63
2023/03/27 00:58:39;;;;;;;11.27;3.80;;;7.30;99.90;;;;;;5002263;28;20238;-64
2023/03/27 01:01:07;;;;;;;11.30;3.07;;;7.30;99.90;;;;;;5013562;28;20207;-64
2023/03/27 01:03:33;;;;;;;5.30;2.93;;;7.30;99.90;;;;;;5005866;28;20191;-63
2023/03/27 01:06:01;;;;;;;4.87;2.53;;;7.10;99.90;;;;;;5013119;28;20313;-63
2023/03/27 01:08:31;;;;;;;2.30;2.10;;;7.00;99.90;;;;;;4999924;28;20175;-63
2023/03/27 01:11:19;;;;;;;6.13;3.40;;;7.00;99.90;;;;;;5003875;28;20218;-64
2023/03/27 01:14:10;;;;;;;3.67;3.27;;;6.90;99.90;;;;;;5007504;28;20234;-63
2023/03/27 01:16:44;;;;;;;4.03;3.30;;;6.80;99.90;;;;;;5011529;28;20259;-63
2023/03/27 01:19:28;;;;;;;5.10;2.27;;;6.80;99.90;;;;;;5014125;28;20182;-62
2023/03/27 01:22:15;;;;;;;3.40;1.80;;;6.80;99.90;;;;;;5002986;28;20195;-63
2023/03/27 01:25:20;;;;;;;3.63;1.90;;;6.80;99.90;;;;;;5004671;28;20561;-64
2023/03/27 01:28:23;;;;;;;2.57;2.10;;;6.80;99.90;;;;;;5014050;28;20643;-63
2023/03/27 01:31:03;;;;;;;4.67;2.93;;;6.80;99.90;;;;;;5005906;28;20187;-63
2023/03/27 01:33:51;;;;;;;2.20;2.07;;;6.90;99.90;;;;;;5010150;28;20570;-64
2023/03/27 01:36:38;;;;;;;2.00;1.90;;;6.90;99.90;;;;;;4996268;28;20266;-64
2023/03/27 01:39:21;;;;;;;2.97;1.93;;;6.80;99.90;;;;;;4999996;28;20653;-64
2023/03/27 01:41:53;;;;;;;6.87;2.97;;;6.80;99.90;;;;;;5019639;28;20259;-65
2023/03/27 01:44:42;;;;;;;3.77;2.67;;;6.70;99.90;;;;;;5010177;28;20751;-63
2023/03/27 01:47:10;;;;;;;5.03;2.33;;;6.70;99.90;;;;;;5002729;28;20167;-63
2023/03/27 01:49:43;;;;;;;3.20;2.97;;;6.70;99.90;;;;;;5009866;28;20194;-63
2023/03/27 01:52:16;;;;;;;4.93;3.87;;;6.70;99.90;;;;;;5010797;28;20175;-64
2023/03/27 01:54:45;;;;;;;7.43;5.87;;;6.80;99.90;;;;;;5005276;28;20179;-64
2023/03/27 01:57:19;;;;;;;7.07;5.77;;;6.80;99.90;;;;;;5009218;28;20692;-64
2023/03/27 01:59:53;;;;;;;10.80;8.03;;;6.70;99.90;;;;;;5012995;28;20175;-63
2023/03/27 02:02:25;;;;;;;8.73;7.93;;;6.60;99.90;;;;;;5004013;28;20659;-63
2023/03/27 02:05:15;;;;;;;10.70;7.43;;;6.70;99.90;;;;;;5012555;28;20199;-63
2023/03/27 02:07:47;;;;;;;10.13;7.87;;;6.80;99.90;;;;;;5009026;28;20199;-64
2023/03/27 02:10:18;;;;;;;7.07;5.33;;;6.70;99.90;;;;;;5007971;28;20188;-64
2023/03/27 02:13:11;;;;;;;4.57;2.73;;;6.70;99.90;;;;;;5007973;28;20186;-64
2023/03/27 02:15:40;;;;;;;3.03;2.60;;;6.60;99.90;;;;;;5000070;28;20184;-64
2023/03/27 02:18:11;;;;;;;2.63;1.93;;;6.70;99.90;;;;;;5011713;28;20585;-64
2023/03/27 02:20:38;;;;;;;3.50;1.77;;;6.70;99.90;;;;;;5020724;28;20271;-63
2023/03/27 02:23:05;;;;;;;4.33;1.63;;;6.70;99.90;;;;;;5037874;28;20391;-64
2023/03/27 02:25:39;;;;;;;2.13;1.93;;;6.70;99.90;;;;;;5012910;28;20211;-63
2023/03/27 02:28:15;;;;;;;2.17;2.07;;;6.70;99.90;;;;;;5026358;28;20215;-64
2023/03/27 02:31:05;;;;;;;5.03;3.60;;;6.70;99.90;;;;;;5026726;28;20191;-63
2023/03/27 02:34:01;;;;;;;7.00;3.57;;;6.80;99.90;;;;;;5001898;28;20230;-65
2023/03/27 02:36:53;;;;;;;4.23;3.20;;;6.80;99.90;;;;;;5014913;28;20230;-64
2023/03/27 02:39:29;;;;;;;1.70;1.60;;;6.70;99.90;;;;;;5002064;28;20657;-64
2023/03/27 02:42:27;;;;;;;3.33;1.50;;;6.70;99.90;;;;;;5002867;28;20548;-64
2023/03/27 02:45:21;;;;;;;3.37;1.87;;;6.70;99.90;;;;;;4998494;28;20294;-64
2023/03/27 02:47:57;;;;;;;1.83;1.73;;;6.60;99.90;;;;;;4999405;28;20203;-64
2023/03/27 02:50:36;;;;;;;1.03;1.03;;;6.70;99.90;;;;;;5005416;28;20571;-65
2023/03/27 02:53:04;;;;;;;2.43;1.50;;;6.60;99.90;;;;;;5026979;28;20259;-64
2023/03/27 02:55:39;;;;;;;1.40;1.40;;;6.60;99.90;;;;;;5001238;28;20692;-64
2023/03/27 02:58:09;;;;;;;1.60;1.50;;;6.60;99.90;;;;;;5015529;28;20513;-64
2023/03/27 03:00:40;;;;;;;2.73;1.83;;;6.60;99.90;;;;;;5012521;28;20563;-66
2023/03/27 03:03:31;;;;;;;3.60;1.60;;;6.70;99.90;;;;;;5009503;28;20172;-63
2023/03/27 03:05:57;;;;;;;2.00;1.90;;;6.70;99.90;;;;;;5007923;28;20218;-63
2023/03/27 03:08:23;;;;;;;2.57;2.30;;;6.70;99.90;;;;;;5016561;28;20192;-63
2023/03/27 03:10:49;;;;;;;4.23;2.33;;;6.60;99.90;;;;;;4999418;28;20274;-62
2023/03/27 03:13:16;;;;;;;6.53;2.37;;;6.50;99.90;;;;;;5010403;28;20279;-63
2023/03/27 03:15:44;;;;;;;4.80;2.47;;;6.50;99.90;;;;;;5010190;28;20187;-63
2023/03/27 03:18:11;;;;;;;3.33;1.40;;;6.50;99.90;;;;;;5027106;28;20228;-64
2023/03/27 03:20:38;;;;;;;2.13;1.83;;;6.50;99.90;;;;;;5008743;28;20272;-65
2023/03/27 03:23:04;;;;;;;1.83;1.73;;;6.60;99.90;;;;;;5025914;28;20210;-64
2023/03/27 03:25:30;;;;;;;2.60;1.37;;;6.60;99.90;;;;;;5026246;28;20620;-64
2023/03/27 03:28:00;;;;;;;2.50;1.30;;;6.60;99.90;;;;;;5004385;28;20241;-63
2023/03/27 03:30:29;;;;;;;4.80;2.47;;;6.70;99.90;;;;;;5026251;28;20641;-63
2023/03/27 03:32:56;;;;;;;5.93;3.07;;;6.70;99.90;;;;;;5014240;28;20193;-63
2023/03/27 03:35:23;;;;;;;5.00;2.90;;;6.80;99.90;;;;;;5003752;28;20270;-62
2023/03/27 03:37:50;;;;;;;2.07;1.97;;;6.80;99.90;;;;;;5017103;28;20194;-64
2023/03/27 03:40:17;;;;;;;3.00;1.60;;;6.70;99.90;;;;;;5023898;28;20183;-63
2023/03/27 03:42:48;;;;;;;1.77;1.67;;;6.70;99.90;;;;;;5013690;28;20193;-64
2023/03/27 03:45:14;;;;;;;5.33;2.13;;;6.60;99.90;;;;;;5027823;28;20218;-63
2023/03/27 03:47:41;;;;;;;6.27;2.20;;;6.50;99.90;;;;;;5009177;28;20187;-64
2023/03/27 03:50:07;;;;;;;4.53;2.67;;;6.60;99.90;;;;;;5027539;28;20277;-63
2023/03/27 03:52:33;;;;;;;2.83;2.63;;;6.60;99.90;;;;;;5008601;28;20188;-64
2023/03/27 03:54:59;;;;;;;2.00;1.90;;;6.70;99.90;;;;;;5004930;28;20190;-63
2023/03/27 03:57:24;;;;;;;1.97;1.40;;;6.70;99.90;;;;;;5010041;28;20193;-63
2023/03/27 03:59:50;;;;;;;5.30;1.83;;;6.70;99.90;;;;;;5024558;28;20179;-63
2023/03/27 04:02:28;;;;;;;2.40;2.27;;;6.70;99.90;;;;;;4997535;28;20326;-63
2023/03/27 04:04:57;;;;;;;7.70;5.70;;;6.60;99.90;;;;;;4997610;28;20215;-63
2023/03/27 04:07:30;;;;;;;11.93;7.33;;;6.80;99.90;;;;;;5025993;28;20652;-62
2023/03/27 04:09:58;;;;;;;6.73;6.13;;;6.70;99.90;;;;;;5014275;28;20184;-63
2023/03/27 04:12:25;;;;;;;6.53;5.67;;;6.70;99.90;;;;;;5024315;28;20696;-63
2023/03/27 04:14:54;;;;;;;16.87;15.23;;;6.80;99.90;;;;;;5018362;28;20198;-64
2023/03/27 04:17:22;;;;;;;33.27;24.13;;;6.90;99.90;;;;;;5061846;28;20241;-63
2023/03/27 04:19:48;;;;;;;47.20;33.10;;;6.80;99.90;;;;;;5027533;28;20240;-63
2023/03/27 04:22:17;;;;;;;34.07;22.50;;;6.60;99.90;;;;;;5030618;28;20183;-63
2023/03/27 04:24:43;;;;;;;10.27;7.43;;;6.50;99.90;;;;;;5030492;28;20295;-65
2023/03/27 04:27:10;;;;;;;5.13;2.30;;;6.50;99.90;;;;;;5026926;28;20261;-64
2023/03/27 04:29:36;;;;;;;6.00;2.07;;;6.50;99.90;;;;;;5014153;28;20186;-63
2023/03/27 04:32:04;;;;;;;4.60;2.47;;;6.40;99.90;;;;;;5016587;28;20247;-62
2023/03/27 04:34:30;;;;;;;12.50;6.73;;;6.30;99.90;;;;;;5008447;28;20189;-62
2023/03/27 04:36:56;;;;;;;13.00;9.67;;;6.40;99.90;;;;;;5031056;28;20179;-63
2023/03/27 04:39:22;;;;;;;12.37;8.13;;;6.40;99.90;;;;;;5013510;28;20184;-63
2023/03/27 04:41:48;;;;;;;7.87;7.07;;;6.40;99.90;;;;;;5022898;28;20669;-62
2023/03/27 04:44:17;;;;;;;13.20;9.63;;;6.40;99.90;;;;;;5029893;28;20225;-63
2023/03/27 04:46:49;;;;;;;18.03;14.47;;;6.40;99.90;;;;;;5026113;28;20248;-62
2023/03/27 04:49:17;;;;;;;12.77;10.57;;;6.40;99.90;;;;;;5015634;28;20195;-63
2023/03/27 04:51:46;;;;;;;13.43;9.13;;;6.40;99.90;;;;;;5030246;28;20179;-65
2023/03/27 04:54:12;;;;;;;11.63;8.37;;;6.30;99.90;;;;;;5020534;28;20286;-65
2023/03/27 04:56:39;;;;;;;15.40;8.43;;;6.30;99.90;;;;;;5017125;28;20265;-63
2023/03/27 04:59:05;;;;;;;11.57;9.70;;;6.30;99.90;;;;;;5005961;28;20229;-63
2023/03/27 05:01:30;;;;;;;7.03;5.93;;;6.10;99.90;;;;;;5020256;28;20176;-63
2023/03/27 05:03:56;;;;;;;2.30;2.17;;;5.90;99.90;;;;;;5013550;28;20191;-62
2023/03/27 05:06:22;;;;;;;4.50;1.90;;;5.80;99.90;;;;;;5014020;28;20188;-62
2023/03/27 05:08:49;;;;;;;1.90;1.67;;;5.80;99.90;;;;;;5020999;28;20182;-63
2023/03/27 05:11:15;;;;;;;1.73;1.63;;;5.80;99.90;;;;;;5013039;28;20221;-63
2023/03/27 05:13:40;;;;;;;2.00;1.90;;;5.80;99.90;;;;;;5008155;28;20257;-63
2023/03/27 05:16:08;;;;;;;2.17;2.00;;;5.70;99.90;;;;;;5020197;28;20242;-63
2023/03/27 05:18:34;;;;;;;2.50;1.87;;;5.60;99.90;;;;;;5012811;28;20217;-63
2023/03/27 05:21:00;;;;;;;1.77;1.67;;;5.50;99.90;;;;;;5011284;28;20186;-63
2023/03/27 05:23:26;;;;;;;1.90;1.77;;;5.70;99.90;;;;;;5014654;28;20176;-63
2023/03/27 05:25:55;;;;;;;9.40;2.00;;;5.80;99.90;;;;;;5017139;28;20234;-63
2023/03/27 05:28:21;;;;;;;3.27;2.00;;;5.80;99.90;;;;;;4995264;28;20278;-64
2023/03/27 05:30:47;;;;;;;3.17;2.23;;;5.80;99.90;;;;;;4999220;28;20191;-62
2023/03/27 05:33:13;;;;;;;3.63;3.03;;;5.80;99.90;;;;;;5016936;28;20682;-64
2023/03/27 05:35:45;;;;;;;2.03;1.87;;;5.90;99.90;;;;;;5043214;28;20275;-64
2023/03/27 05:38:12;;;;;;;3.37;2.33;;;5.80;99.90;;;;;;5010223;28;20187;-64
2023/03/27 05:40:38;;;;;;;2.90;2.63;;;5.80;99.90;;;;;;5014013;28;20589;-63
2023/03/27 05:43:04;;;;;;;2.20;1.77;;;5.80;99.90;;;;;;5029079;28;20662;-67
2023/03/27 05:45:31;;;;;;;2.03;1.90;;;5.60;99.90;;;;;;5022836;28;20211;-62
2023/03/27 05:47:59;;;;;;;3.30;1.63;;;5.80;99.90;;;;;;5024375;28;20307;-65
2023/03/27 05:50:27;;;;;;;5.73;2.70;;;5.80;99.90;;;;;;5032499;28;20179;-65
2023/03/27 05:53:01;;;;;;;1.53;1.43;;;5.60;99.90;;;;;;5000353;28;20239;-64
2023/03/27 05:55:27;;;;;;;3.30;1.40;;;5.50;99.90;;;;;;5024590;28;20187;-65
2023/03/27 05:57:53;;;;;;;1.53;1.43;;;5.60;99.90;;;;;;5021956;28;20465;-63
2023/03/27 06:00:24;;;;;;;1.93;1.73;;;5.50;99.90;;;;;;5007064;28;20192;-64
2023/03/27 06:02:56;;;;;;;1.33;1.30;;;5.50;99.90;;;;;;5016419;28;20184;-65
2023/03/27 06:05:22;;;;;;;2.77;2.17;;;5.50;99.90;;;;;;5036465;28;20206;-63
2023/03/27 06:07:49;;;;;;;2.63;2.27;;;5.50;99.90;;;;;;5040372;28;20224;-63
2023/03/27 06:10:25;;;;;;;7.30;5.57;;;5.40;99.90;;;;;;5016273;28;20188;-63
2023/03/27 06:13:17;;;;;;;3.60;3.10;;;5.40;99.90;;;;;;5016687;28;20189;-67
2023/03/27 06:15:43;;;;;;;4.70;4.30;;;5.50;99.90;;;;;;5007239;28;20195;-65
2023/03/27 06:18:09;;;;;;;6.47;3.60;;;5.40;99.90;;;;;;5010213;28;20250;-65
2023/03/27 06:20:36;;;;;;;8.47;3.43;;;5.40;99.90;;;;;;5024763;28;20188;-63
2023/03/27 06:23:05;;;;;;;4.33;2.60;;;5.50;99.90;;;;;;5015910;28;20172;-63
2023/03/27 06:25:33;;;;;;;1.77;1.63;;;5.50;99.90;;;;;;5055165;28;20214;-64
2023/03/27 06:28:00;;;;;;;2.30;1.53;;;5.50;99.90;;;;;;5010312;28;20183;-64
2023/03/27 06:30:27;;;;;;;1.33;1.33;;;5.50;99.90;;;;;;5012676;28;20182;-63
2023/03/27 06:32:57;;;;;;;1.20;1.20;;;5.50;99.90;;;;;;5009308;28;20195;-64
2023/03/27 06:35:25;;;;;;;1.67;1.30;;;5.50;99.90;;;;;;5015451;28;20203;-63
2023/03/27 06:37:51;;;;;;;1.70;1.53;;;5.40;99.90;;;;;;5001918;28;20176;-63
2023/03/27 06:40:23;;;;;;;2.77;1.80;;;5.50;99.90;;;;;;5028305;28;20179;-63
2023/03/27 06:43:09;;;;;;;1.37;1.30;;;5.50;99.90;;;;;;5030233;28;20188;-63
2023/03/27 06:45:47;;;;;;;1.53;1.43;;;5.60;99.90;;;;;;5026587;28;20273;-64
2023/03/27 06:48:14;;;;;;;3.20;2.30;;;5.60;99.90;;;;;;5026413;28;20183;-63
2023/03/27 06:50:40;;;;;;;1.87;1.77;;;5.50;99.90;;;;;;5026218;28;20181;-63
2023/03/27 06:53:06;;;;;;;3.20;1.60;;;5.60;99.90;;;;;;5013065;28;20184;-64
2023/03/27 06:55:33;;;;;;;1.77;1.67;;;5.70;99.90;;;;;;5010784;28;20190;-64
2023/03/27 06:58:00;;;;;;;3.60;2.33;;;5.70;99.90;;;;;;5015286;28;20188;-65
2023/03/27 07:00:29;;;;;;;3.87;2.10;;;5.80;99.90;;;;;;5029235;28;20263;-64
2023/03/27 07:02:56;;;;;;;2.57;2.23;;;5.90;99.90;;;;;;5024314;28;20537;-63
2023/03/27 07:05:22;;;;;;;2.33;2.13;;;6.00;99.90;;;;;;5019684;28;20214;-64
2023/03/27 07:07:48;;;;;;;3.17;2.87;;;6.00;99.90;;;;;;5017656;28;20652;-63
2023/03/27 07:10:14;;;;;;;2.80;2.60;;;6.00;99.90;;;;;;5019803;28;20595;-64
2023/03/27 07:12:44;;;;;;;4.73;2.37;;;6.10;99.90;;;;;;5019789;28;20232;-63
2023/03/27 07:15:10;;;;;;;3.03;2.83;;;6.30;99.90;;;;;;5022595;28;20186;-64
2023/03/27 07:17:36;;;;;;;3.90;2.27;;;6.60;99.90;;;;;;5006954;28;20275;-64
2023/03/27 07:20:02;;;;;;;3.40;2.33;;;6.80;99.90;;;;;;5052575;28;20186;-64
2023/03/27 07:22:28;;;;;;;2.47;2.27;;;7.10;99.90;;;;;;5004958;28;20191;-66
2023/03/27 07:24:54;;;;;;;4.30;3.33;;;7.40;99.90;;;;;;5016604;28;20245;-65
2023/03/27 07:27:20;;;;;;;3.20;2.10;;;7.50;99.90;;;;;;5014540;28;20230;-64
2023/03/27 07:29:45;;;;;;;2.50;1.70;;;7.40;99.90;;;;;;5013930;28;20643;-62
2023/03/27 07:32:11;;;;;;;1.90;1.80;;;7.30;99.90;;;;;;5016394;28;20214;-62
2023/03/27 07:34:37;;;;;;;2.27;1.60;;;6.90;99.90;;;;;;5023585;28;20289;-63
2023/03/27 07:37:03;;;;;;;2.57;1.70;;;5.90;99.90;;;;;;5017197;28;20238;-63
2023/03/27 07:39:28;;;;;;;4.10;3.20;;;5.30;99.90;;;;;;5015904;28;20265;-61
2023/03/27 07:41:54;;;;;;;5.23;2.00;;;5.30;99.90;;;;;;5015455;28;20710;-62
2023/03/27 07:44:20;;;;;;;1.80;1.70;;;5.30;99.90;;;;;;5021877;28;20613;-63
2023/03/27 07:46:46;;;;;;;2.10;2.00;;;5.40;99.90;;;;;;5018096;28;20188;-61
2023/03/27 07:49:12;;;;;;;2.43;1.97;;;5.40;99.90;;;;;;5009412;28;20541;-61
2023/03/27 07:51:38;;;;;;;2.00;1.80;;;5.60;99.90;;;;;;5020714;28;20176;-61
2023/03/27 07:54:05;;;;;;;1.50;1.50;;;6.20;99.90;;;;;;5013629;28;20265;-63
2023/03/27 07:56:34;;;;;;;4.00;2.10;;;7.50;99.90;;;;;;5027737;28;20222;-63
2023/03/27 07:59:00;;;;;;;10.07;6.90;;;8.80;99.90;;;;;;5042074;28;20234;-63
2023/03/27 08:01:26;;;;;;;4.90;4.40;;;10.10;99.90;;;;;;5006749;28;20195;-63
2023/03/27 08:03:52;;;;;;;5.75;2.88;;;11.80;99.90;;;;;;5001811;28;20179;-62
2023/03/27 08:06:19;;;;;;;4.45;1.70;;;12.40;99.90;;;;;;5010133;28;20664;-61
2023/03/27 08:08:45;;;;;;;1.42;1.42;;;13.60;99.90;;;;;;5011133;28;20237;-60
2023/03/27 08:11:10;;;;;;;2.25;1.60;;;14.20;99.90;;;;;;5001834;28;20188;-64
2023/03/27 08:13:36;;;;;;;1.67;1.20;;;14.30;99.90;;;;;;5013914;28;20184;-62
2023/03/27 08:16:16;;;;;;;7.47;3.10;;;14.10;99.90;;;;;;5016462;28;20219;-63
2023/03/27 08:18:43;;;;;;;2.05;1.67;;;14.80;99.90;;;;;;5000128;28;20204;-63
2023/03/27 08:21:10;;;;;;;1.73;1.58;;;15.10;99.90;;;;;;5002494;28;20180;-63
2023/03/27 08:23:37;;;;;;;3.13;1.70;;;14.90;99.90;;;;;;5010805;28;20176;-61
2023/03/27 08:26:03;;;;;;;4.85;1.55;;;15.10;99.90;;;;;;5015582;28;20212;-63
2023/03/27 08:28:31;;;;;;;2.05;1.42;;;14.60;99.90;;;;;;5024580;28;20529;-64
2023/03/27 08:30:58;;;;;;;5.38;1.67;;;14.20;99.90;;;;;;5015737;28;20179;-64
2023/03/27 08:33:26;;;;;;;1.65;1.55;;;14.70;99.90;;;;;;5007990;28;20183;-65
2023/03/27 08:35:53;;;;;;;3.47;1.58;;;15.20;99.90;;;;;;5012921;28;20465;-64
2023/03/27 08:38:19;;;;;;;9.35;1.73;;;15.90;99.90;;;;;;5007361;28;20176;-67
2023/03/27 08:40:53;;;;;;;5.05;1.30;;;16.20;99.90;;;;;;5020119;28;20179;-66
2023/03/27 08:43:26;;;;;;;2.53;1.42;;;13.70;99.90;;;;;;5014269;28;20175;-65
2023/03/27 08:45:59;;;;;;;2.72;1.45;;;11.10;99.90;;;;;;5003154;28;20690;-65
2023/03/27 08:48:45;;;;;;;3.47;1.93;;;9.40;99.90;;;;;;5022851;28;20194;-65
2023/03/27 08:51:17;;;;;;;2.33;1.10;;;8.30;99.90;;;;;;5009219;28;20180;-64
2023/03/27 08:53:55;;;;;;;1.70;1.60;;;7.50;99.90;;;;;;5011475;28;20653;-64
2023/03/27 08:56:24;;;;;;;1.53;1.50;;;7.10;99.90;;;;;;5007048;28;20214;-65
2023/03/27 08:58:50;;;;;;;4.03;2.20;;;6.80;99.90;;;;;;5010515;28;20899;-65
2023/03/27 09:01:39;;;;;;;3.73;3.37;;;6.80;99.90;;;;;;5018344;28;20278;-64
2023/03/27 09:04:33;;;;;;;4.53;4.17;;;7.00;99.90;;;;;;5011947;28;20237;-64
2023/03/27 09:07:16;;;;;;;3.40;3.20;;;7.30;99.90;;;;;;5017626;28;20567;-65
2023/03/27 09:10:14;;;;;;;4.83;2.13;;;7.30;99.90;;;;;;5007115;28;20254;-64
2023/03/27 09:13:21;;;;;;;2.33;1.80;;;7.40;99.90;;;;;;5012479;28;20187;-64
2023/03/27 09:16:01;;;;;;;3.37;1.90;;;7.60;99.90;;;;;;5009852;28;20672;-63
2023/03/27 09:18:38;;;;;;;7.17;1.30;;;7.50;99.90;;;;;;5016642;28;20206;-64
2023/03/27 09:21:18;;;;;;;3.03;1.60;;;7.50;99.90;;;;;;5009441;28;20723;-64
2023/03/27 09:23:45;;;;;;;2.07;1.87;;;7.60;99.90;;;;;;5018988;28;20250;-64
2023/03/27 09:26:29;;;;;;;3.60;1.33;;;7.80;99.90;;;;;;5016361;28;20214;-64
2023/03/27 09:29:24;;;;;;;2.30;1.30;;;7.90;99.90;;;;;;5012553;28;20174;-68
2023/03/27 09:31:53;;;;;;;3.70;2.07;;;7.90;99.90;;;;;;5000230;28;20212;-65
2023/03/27 09:34:32;;;;;;;2.20;2.00;;;8.00;99.90;;;;;;5000843;28;20186;-64
2023/03/27 09:36:59;;;;;;;1.60;1.50;;;8.00;99.90;;;;;;5017538;28;20181;-64
2023/03/27 09:39:34;;;;;;;5.17;1.70;;;8.10;99.90;;;;;;5024076;28;20191;-64
2023/03/27 09:42:22;;;;;;;1.60;1.30;;;8.20;99.90;;;;;;5018100;28;20540;-63
2023/03/27 09:44:55;;;;;;;2.87;1.70;;;8.30;99.90;;;;;;5011883;28;20225;-65
2023/03/27 09:47:43;;;;;;;4.83;1.90;;;8.40;99.90;;;;;;5006038;28;20216;-63
2023/03/27 09:50:28;;;;;;;1.73;0.93;;;8.40;99.90;;;;;;4997165;28;20539;-64
2023/03/27 09:53:13;;;;;;;3.80;1.40;;;8.30;99.90;;;;;;5006571;28;20184;-65
2023/03/27 09:55:52;;;;;;;4.77;1.93;;;8.40;99.90;;;;;;5009177;28;20183;-65
2023/03/27 09:58:27;;;;;;;5.13;1.57;;;8.50;99.90;;;;;;5005585;28;20291;-66
2023/03/27 10:01:15;;;;;;;1.90;1.27;;;8.60;99.90;;;;;;5004877;28;20189;-63
2023/03/27 10:03:51;;;;;;;9.07;2.80;;;8.60;99.90;;;;;;4999276;28;20389;-65
2023/03/27 10:06:29;;;;;;;5.37;2.50;;;8.90;99.90;;;;;;4996931;28;20270;-64
2023/03/27 10:08:56;;;;;;;1.37;1.30;;;8.90;99.90;;;;;;4996563;28;20187;-64
2023/03/27 10:11:30;;;;;;;0.93;0.93;;;8.10;99.90;;;;;;5008963;28;20283;-61
2023/03/27 10:13:58;;;;;;;2.53;1.37;;;7.40;99.90;;;;;;5008461;28;20270;-63
2023/03/27 10:16:26;;;;;;;1.40;1.27;;;6.90;99.90;;;;;;5013565;28;20679;-63
2023/03/27 10:18:55;;;;;;;1.43;1.37;;;6.70;99.90;;;;;;5011679;28;20183;-65
2023/03/27 10:21:28;;;;;;;7.17;2.30;;;6.60;99.90;;;;;;5024277;28;20175;-64
2023/03/27 10:24:06;;;;;;;2.03;1.00;;;6.60;99.90;;;;;;5007053;28;20191;-64
2023/03/27 10:26:36;;;;;;;1.30;1.23;;;6.80;99.90;;;;;;5013674;28;20206;-64
2023/03/27 10:29:26;;;;;;;5.07;1.40;;;7.20;99.90;;;;;;5011302;28;20266;-66
2023/03/27 10:31:55;;;;;;;2.53;1.20;;;7.60;99.90;;;;;;5015820;28;20299;-63
2023/03/27 10:34:35;;;;;;;3.63;1.90;;;7.70;99.90;;;;;;5006305;28;20271;-64
2023/03/27 10:37:03;;;;;;;0.93;0.80;;;7.50;99.90;;;;;;5015106;28;20236;-64
2023/03/27 10:39:33;;;;;;;1.60;0.90;;;7.40;99.90;;;;;;5007132;28;20188;-63
2023/03/27 10:42:06;;;;;;;0.90;0.90;;;7.70;99.90;;;;;;5026698;28;20182;-64
2023/03/27 10:44:36;;;;;;;2.90;1.30;;;8.20;99.90;;;;;;5017809;28;20212;-63
2023/03/27 10:47:03;;;;;;;1.87;0.90;;;8.60;99.90;;;;;;5016637;28;20637;-63
2023/03/27 10:49:43;;;;;;;0.80;0.80;;;9.00;99.90;;;;;;4998132;28;20234;-63
2023/03/27 10:52:32;;;;;;;1.93;1.00;;;9.10;99.90;;;;;;4999591;28;20179;-63
2023/03/27 10:55:19;;;;;;;2.20;1.00;;;9.20;99.90;;;;;;5005943;28;20199;-64
2023/03/27 10:57:52;;;;;;;1.87;1.03;;;9.20;99.90;;;;;;5011937;28;20615;-64
2023/03/27 11:00:42;;;;;;;1.47;1.10;;;9.20;99.90;;;;;;5021610;28;20187;-64
2023/03/27 11:03:30;;;;;;;4.00;1.23;;;8.90;99.90;;;;;;5009885;28;20518;-64
2023/03/27 11:05:59;;;;;;;3.10;1.33;;;8.60;99.90;;;;;;4998850;28;20203;-63
2023/03/27 11:08:45;;;;;;;7.67;0.93;;;8.40;99.90;;;;;;5006543;28;20302;-64
2023/03/27 11:11:29;;;;;;;1.33;1.23;;;8.60;99.90;;;;;;4998315;28;20186;-64
2023/03/27 11:14:01;;;;;;;2.97;1.10;;;8.80;99.90;;;;;;5011393;28;20195;-64
2023/03/27 11:16:57;;;;;;;2.00;0.97;;;9.10;99.90;;;;;;5013026;28;20691;-64
2023/03/27 11:19:39;;;;;;;1.27;1.10;;;9.20;99.90;;;;;;5004853;28;20215;-64
2023/03/27 11:22:24;;;;;;;0.90;0.83;;;9.30;99.90;;;;;;5005953;28;20194;-65
2023/03/27 11:24:54;;;;;;;2.70;1.00;;;9.30;99.90;;;;;;5004878;28;20207;-64
2023/03/27 11:27:33;;;;;;;2.57;1.00;;;9.20;99.90;;;;;;5009347;28;20187;-64
2023/03/27 11:30:24;;;;;;;2.50;1.10;;;9.10;99.90;;;;;;5001639;28;20183;-64
2023/03/27 11:33:16;;;;;;;4.10;1.27;;;9.10;99.90;;;;;;5008689;28;20298;-64
2023/03/27 11:35:58;;;;;;;2.47;1.07;;;9.30;99.90;;;;;;5021972;28;20190;-63
2023/03/27 11:38:36;;;;;;;1.93;1.30;;;9.30;99.90;;;;;;5013419;28;20179;-65
2023/03/27 11:41:02;;;;;;;3.17;1.17;;;9.60;99.90;;;;;;5014495;28;20241;-62
2023/03/27 11:43:27;;;;;;;3.33;1.47;;;9.80;99.90;;;;;;5013377;28;20184;-65
2023/03/27 11:46:10;;;;;;;4.00;1.30;;;10.00;99.90;;;;;;5006867;28;20223;-66
2023/03/27 11:49:09;;;;;;;1.47;1.10;;;9.60;99.90;;;;;;5003205;28;20176;-66
2023/03/27 11:51:56;;;;;;;1.57;1.13;;;9.20;99.90;;;;;;5006259;28;20180;-65
2023/03/27 11:54:40;;;;;;;3.87;1.00;;;9.10;99.90;;;;;;5008281;28;20184;-67
2023/03/27 11:57:19;;;;;;;1.07;0.97;;;9.10;99.90;;;;;;5004647;28;20187;-66
2023/03/27 12:00:26;;;;;;;3.57;1.40;;;9.10;99.90;;;;;;5011173;28;20712;-65
2023/03/27 12:03:06;;;;;;;2.20;1.20;;;9.20;99.90;;;;;;4988809;28;20203;-65
2023/03/27 12:05:51;;;;;;;4.20;1.20;;;9.10;99.90;;;;;;4999767;28;20215;-64
2023/03/27 12:08:39;;;;;;;3.37;1.30;;;9.20;99.90;;;;;;5003140;28;20183;-66
2023/03/27 12:11:08;;;;;;;2.97;1.20;;;9.20;99.90;;;;;;5006458;28;20534;-65
2023/03/27 12:14:05;;;;;;;1.37;1.17;;;9.20;99.90;;;;;;5006694;28;20211;-65
2023/03/27 12:16:53;;;;;;;3.33;1.20;;;9.30;99.90;;;;;;5006498;28;20219;-65
2023/03/27 12:19:24;;;;;;;1.37;1.27;;;9.50;99.90;;;;;;5011782;28;20187;-66
2023/03/27 12:22:26;;;;;;;4.67;1.10;;;9.60;99.90;;;;;;5008166;28;20532;-66
2023/03/27 12:25:27;;;;;;;1.23;1.10;;;9.60;99.90;;;;;;5011391;28;20211;-65
2023/03/27 12:28:12;;;;;;;5.07;2.43;;;9.40;99.90;;;;;;5013113;28;20184;-65
2023/03/27 12:30:59;;;;;;;3.17;1.40;;;9.30;99.90;;;;;;5018813;28;20186;-65
2023/03/27 12:33:54;;;;;;;3.10;1.30;;;9.40;99.90;;;;;;5008966;28;20254;-65
2023/03/27 12:36:23;;;;;;;0.97;0.90;;;9.60;99.90;;;;;;5024957;28;20551;-65
2023/03/27 12:38:51;;;;;;;1.77;0.70;;;10.00;99.90;;;;;;5014582;28;20206;-64
2023/03/27 12:41:32;;;;;;;2.47;1.53;;;10.10;99.90;;;;;;5014760;28;20190;-66
2023/03/27 12:44:03;;;;;;;1.10;1.07;;;10.00;99.90;;;;;;5032495;28;20221;-64
2023/03/27 12:46:33;;;;;;;1.57;1.10;;;10.10;99.90;;;;;;5030446;28;20210;-66
2023/03/27 12:49:05;;;;;;;1.20;1.20;;;10.20;99.90;;;;;;5015904;28;20179;-64
2023/03/27 12:52:03;;;;;;;1.40;1.30;;;10.30;99.90;;;;;;5025615;28;20206;-66
2023/03/27 12:54:34;;;;;;;2.07;1.40;;;10.20;99.90;;;;;;5021793;28;20224;-65
2023/03/27 12:57:12;;;;;;;1.00;1.00;;;10.10;99.90;;;;;;5003195;28;20179;-64
2023/03/27 12:59:47;;;;;;;0.90;0.90;;;10.10;99.90;;;;;;5014031;28;20184;-64
2023/03/27 13:02:16;;;;;;;2.23;1.10;;;10.10;99.90;;;;;;5010507;28;20220;-65
2023/03/27 13:05:03;;;;;;;2.13;1.77;;;9.90;99.90;;;;;;5016922;28;20231;-65
2023/03/27 13:07:53;;;;;;;1.33;1.20;;;9.80;99.90;;;;;;5013086;28;20182;-65
2023/03/27 13:10:46;;;;;;;5.33;1.40;;;9.70;99.90;;;;;;5016283;28;20240;-66
2023/03/27 13:13:36;;;;;;;4.03;2.00;;;9.30;99.90;;;;;;5010889;28;20191;-65
2023/03/27 13:16:17;;;;;;;3.90;1.70;;;9.00;99.90;;;;;;5012205;28;20190;-67
2023/03/27 13:19:04;;;;;;;1.97;1.30;;;8.90;99.90;;;;;;5030047;28;20187;-66
2023/03/27 13:21:42;;;;;;;3.30;1.47;;;9.10;99.90;;;;;;5003797;28;20192;-65
2023/03/27 13:24:19;;;;;;;4.87;1.50;;;9.10;99.90;;;;;;5050552;28;20197;-64
2023/03/27 13:26:59;;;;;;;1.53;1.40;;;8.80;99.90;;;;;;5021590;28;20203;-65
2023/03/27 13:29:30;;;;;;;10.70;1.73;;;8.90;99.90;;;;;;5023974;28;20203;-66